Main page
METAR-TAF:

METAR-TAF

Airports :

Kushok Bakula Rimpochee Airport

Leh, India

latitude: 34-08-09N, longitude: 077-32-47E, elevation: 3256 m

METAR: missing

Time: 14:03 (08:33 UTC)

Forecast

The report was made 5 hours and 3 minutes ago, at 03:30 UTC
Forecast valid from 13 at 06 UTC to 13 at 18 UTC
Wind 2 kt from variable directions
Visibility: 6000 m
Scattered clouds at a height of 6000 ft
Broken clouds at a height of 10000 ft
Temporary
from 13 at 10 UTC to 13 at 12 UTC
Wind 10 kt from the West/Northwest with gusts up to 20 kt
Few clouds at a height of 4000 ft
light snow

TAF: VILH 130330Z 1306/1318 VRB02KT 6000 SCT060 BKN100 TEMPO 1310/1312 29010G20KT -SN FEW040

Weather observations and forecasts of more than 4000 airports (METAR and TAF reports).

The available stations are represented by yellow and red dots on the map.

Hover mouse over dot to see the name of the station.

Then click to see weather observations and forecasts.

To change the map : click on the green buttons with a black cross to zoom in, on the green button with a dash to zoom out, or on the green arrows for adjacent maps.


METAR-TAF: